Time;durP1;ratioP1;P1;durP2;ratioP2;P2;SDS_P1;SDS_P2;PMS_P1;PMS_P2;Temp;Humidity;BMP_temperature;BMP_pressure;BME280_temperature;BME280_humidity;BME280_pressure;Samples;Min_cycle;Max_cycle;Signal;HPM_P1;HPM_P2
2023/09/13 00:00:36;;;;;;;7.73;6.93;;;;;;;;;;5081035;28;20572;-92
2023/09/13 00:03:03;;;;;;;7.85;6.22;;;;;;;;;;5061027;28;20310;-91
2023/09/13 00:05:31;;;;;;;10.85;6.63;;;;;;;;;;5082833;28;20424;-92
2023/09/13 00:07:58;;;;;;;9.68;6.97;;;;;;;;;;5080377;28;20059;-92
2023/09/13 00:10:27;;;;;;;8.18;6.32;;;;;;;;;;5086791;28;20048;-91
2023/09/13 00:12:55;;;;;;;9.00;7.13;;;;;;;;;;5073923;28;20059;-91
2023/09/13 00:15:24;;;;;;;15.05;7.00;;;;;;;;;;5082541;28;20412;-92
2023/09/13 00:17:55;;;;;;;8.07;6.68;;;;;;;;;;5088112;28;20040;-92
2023/09/13 00:20:22;;;;;;;9.77;6.68;;;;;;;;;;5086832;28;20405;-91
2023/09/13 00:22:50;;;;;;;7.38;6.07;;;;;;;;;;5056680;28;20071;-91
2023/09/13 00:25:20;;;;;;;9.77;6.63;;;;;;;;;;5056548;28;20591;-92
2023/09/13 00:27:49;;;;;;;8.63;7.35;;;;;;;;;;5083440;28;20509;-91
2023/09/13 00:30:17;;;;;;;8.00;6.38;;;;;;;;;;5072409;28;20056;-91
2023/09/13 00:32:44;;;;;;;7.20;6.53;;;;;;;;;;5066850;28;20051;-92
2023/09/13 00:35:12;;;;;;;11.15;5.40;;;;;;;;;;5060299;28;20049;-92
2023/09/13 00:37:43;;;;;;;7.32;5.13;;;;;;;;;;5080148;28;20067;-92
2023/09/13 00:40:12;;;;;;;8.70;6.50;;;;;;;;;;5069673;28;20048;-92
2023/09/13 00:42:39;;;;;;;7.35;6.65;;;;;;;;;;5070170;28;20048;-92
2023/09/13 00:45:13;;;;;;;5.75;5.25;;;;;;;;;;5079663;28;20526;-91
2023/09/13 00:47:43;;;;;;;7.55;6.10;;;;;;;;;;5084411;28;20062;-94
2023/09/13 00:50:14;;;;;;;8.02;6.57;;;;;;;;;;5066578;28;20165;-91
2023/09/13 00:52:47;;;;;;;7.50;5.78;;;;;;;;;;5077965;28;20052;-92
2023/09/13 00:55:18;;;;;;;6.68;5.03;;;;;;;;;;5083788;28;20053;-92
2023/09/13 00:57:45;;;;;;;7.22;6.10;;;;;;;;;;5063051;28;20052;-92
2023/09/13 01:00:16;;;;;;;6.85;5.82;;;;;;;;;;5077334;28;20048;-91
2023/09/13 01:02:44;;;;;;;8.13;5.80;;;;;;;;;;5085159;28;20241;-91
2023/09/13 01:05:14;;;;;;;6.65;4.93;;;;;;;;;;5083727;28;20055;-92
2023/09/13 01:07:43;;;;;;;7.93;6.13;;;;;;;;;;5054616;28;20444;-91
2023/09/13 01:10:11;;;;;;;6.80;5.35;;;;;;;;;;5063722;28;20052;-92
2023/09/13 01:12:42;;;;;;;7.93;5.43;;;;;;;;;;5064338;28;20063;-92
2023/09/13 01:15:20;;;;;;;5.50;4.97;;;;;;;;;;5079168;28;20063;-91
2023/09/13 01:17:53;;;;;;;7.40;5.93;;;;;;;;;;5074655;28;20052;-91
2023/09/13 01:20:34;;;;;;;8.40;7.32;;;;;;;;;;5087865;28;20059;-91
2023/09/13 01:23:17;;;;;;;6.35;5.70;;;;;;;;;;5060918;28;20040;-92
2023/09/13 01:25:55;;;;;;;7.28;5.85;;;;;;;;;;5084870;28;20044;-91
2023/09/13 01:28:36;;;;;;;8.00;5.47;;;;;;;;;;5069061;28;20642;-93
2023/09/13 01:31:06;;;;;;;6.93;5.50;;;;;;;;;;5100592;28;20048;-92
2023/09/13 01:33:35;;;;;;;6.57;5.70;;;;;;;;;;5072836;28;20048;-91
2023/09/13 01:36:05;;;;;;;6.75;6.05;;;;;;;;;;5091005;28;20043;-91
2023/09/13 01:38:33;;;;;;;8.90;6.38;;;;;;;;;;5077011;28;20052;-92
2023/09/13 01:41:11;;;;;;;6.05;5.15;;;;;;;;;;5084448;28;20051;-91
2023/09/13 01:43:40;;;;;;;6.60;4.97;;;;;;;;;;5062834;28;20493;-92
2023/09/13 01:46:08;;;;;;;6.82;5.07;;;;;;;;;;5079589;28;20103;-92
2023/09/13 01:48:39;;;;;;;6.25;5.63;;;;;;;;;;5074313;28;20059;-92
2023/09/13 01:51:12;;;;;;;5.78;4.97;;;;;;;;;;5058250;28;20047;-91
2023/09/13 01:53:47;;;;;;;8.90;5.18;;;;;;;;;;5068320;28;20527;-92
2023/09/13 01:56:21;;;;;;;6.40;5.60;;;;;;;;;;5085816;28;20044;-92
2023/09/13 01:58:57;;;;;;;6.22;5.55;;;;;;;;;;5091301;28;21747;-91
2023/09/13 02:01:29;;;;;;;7.13;5.55;;;;;;;;;;5075678;28;20634;-93
2023/09/13 02:03:56;;;;;;;6.88;5.07;;;;;;;;;;5062010;28;20512;-92
2023/09/13 02:06:24;;;;;;;5.82;4.78;;;;;;;;;;5087254;28;20063;-92
2023/09/13 02:08:54;;;;;;;7.15;5.78;;;;;;;;;;5075619;28;20032;-92
2023/09/13 02:11:21;;;;;;;6.13;4.65;;;;;;;;;;5047553;28;20056;-93
2023/09/13 02:13:50;;;;;;;6.85;4.70;;;;;;;;;;5071713;28;20040;-92
2023/09/13 02:16:22;;;;;;;6.15;5.65;;;;;;;;;;5086858;28;20051;-91
2023/09/13 02:18:50;;;;;;;8.73;5.03;;;;;;;;;;5084529;28;20048;-91
2023/09/13 02:21:18;;;;;;;6.50;5.38;;;;;;;;;;5081684;28;20067;-92
2023/09/13 02:23:51;;;;;;;5.32;4.82;;;;;;;;;;5089463;28;20036;-91
2023/09/13 02:26:22;;;;;;;10.02;6.80;;;;;;;;;;5069731;28;20048;-93
2023/09/13 02:28:56;;;;;;;7.13;4.85;;;;;;;;;;5082310;28;20051;-92
2023/09/13 02:31:29;;;;;;;6.40;5.80;;;;;;;;;;5087966;28;20395;-91
2023/09/13 02:33:56;;;;;;;;;;;;;;;;;;5060493;28;20441;-91
2023/09/13 02:36:27;;;;;;;7.82;5.57;;;;;;;;;;5067353;28;19943;-92
2023/09/13 02:38:55;;;;;;;5.38;4.85;;;;;;;;;;5060398;28;20041;-92
2023/09/13 02:41:22;;;;;;;6.22;5.03;;;;;;;;;;5086171;28;20047;-92
2023/09/13 02:43:50;;;;;;;6.03;4.97;;;;;;;;;;5075451;28;20036;-93
2023/09/13 02:46:17;;;;;;;7.55;5.43;;;;;;;;;;5076266;28;20048;-91
2023/09/13 02:48:47;;;;;;;6.45;4.93;;;;;;;;;;5065531;28;20055;-91
2023/09/13 02:51:15;;;;;;;8.75;5.13;;;;;;;;;;5061431;28;20517;-91
2023/09/13 02:53:44;;;;;;;7.00;5.60;;;;;;;;;;5085028;28;20558;-92
2023/09/13 02:56:13;;;;;;;7.00;6.35;;;;;;;;;;5081276;28;20049;-91
2023/09/13 02:58:43;;;;;;;7.25;4.88;;;;;;;;;;5068387;28;20061;-91
2023/09/13 03:01:12;;;;;;;5.53;4.97;;;;;;;;;;5073288;28;20055;-91
2023/09/13 03:03:43;;;;;;;8.17;6.13;;;;;;;;;;5057657;28;20794;-92
2023/09/13 03:06:15;;;;;;;6.28;4.95;;;;;;;;;;5061130;28;20048;-91
2023/09/13 03:08:43;;;;;;;6.00;5.40;;;;;;;;;;5072675;28;20063;-91
2023/09/13 03:11:12;;;;;;;12.13;5.63;;;;;;;;;;5085679;28;20516;-91
2023/09/13 03:13:39;;;;;;;7.53;5.47;;;;;;;;;;5059582;28;20536;-93
2023/09/13 03:16:13;;;;;;;6.47;5.85;;;;;;;;;;5060967;28;20060;-92
2023/09/13 03:18:43;;;;;;;8.95;5.85;;;;;;;;;;5071519;28;20048;-92
2023/09/13 03:21:18;;;;;;;8.18;5.07;;;;;;;;;;5075155;28;20535;-92
2023/09/13 03:23:48;;;;;;;7.57;5.28;;;;;;;;;;5059820;28;20055;-91
2023/09/13 03:26:17;;;;;;;7.03;6.00;;;;;;;;;;5082561;28;20500;-92
2023/09/13 03:28:50;;;;;;;7.50;5.50;;;;;;;;;;5087014;28;20051;-91
2023/09/13 03:31:19;;;;;;;7.35;5.35;;;;;;;;;;5080664;28;20508;-91
2023/09/13 03:33:54;;;;;;;11.55;5.95;;;;;;;;;;5068461;28;20040;-91
2023/09/13 03:36:28;;;;;;;7.93;6.35;;;;;;;;;;5070725;28;20063;-92
2023/09/13 03:39:03;;;;;;;9.32;6.70;;;;;;;;;;5070355;28;20056;-91
2023/09/13 03:41:34;;;;;;;8.40;6.38;;;;;;;;;;5089908;28;20048;-93
2023/09/13 03:44:03;;;;;;;10.15;6.55;;;;;;;;;;5061174;28;20044;-92
2023/09/13 03:46:33;;;;;;;6.60;4.90;;;;;;;;;;5066261;28;20052;-91
2023/09/13 03:49:02;;;;;;;6.32;5.15;;;;;;;;;;5064376;28;20056;-91
2023/09/13 03:51:31;;;;;;;13.70;5.75;;;;;;;;;;5093510;28;20058;-91
2023/09/13 03:54:00;;;;;;;9.13;6.07;;;;;;;;;;5067938;28;20436;-91
2023/09/13 03:56:30;;;;;;;6.30;5.65;;;;;;;;;;5076400;28;20049;-92
2023/09/13 03:59:05;;;;;;;6.70;5.93;;;;;;;;;;5066040;28;20051;-91
2023/09/13 04:01:33;;;;;;;5.65;5.07;;;;;;;;;;5097473;28;20048;-92
2023/09/13 04:04:00;;;;;;;7.25;6.55;;;;;;;;;;5080468;28;20055;-92
2023/09/13 04:06:33;;;;;;;8.05;6.07;;;;;;;;;;5079393;28;20512;-91
2023/09/13 04:09:03;;;;;;;5.85;4.85;;;;;;;;;;5103943;28;20509;-92
2023/09/13 04:11:31;;;;;;;6.00;5.40;;;;;;;;;;5089947;28;20614;-91
2023/09/13 04:14:05;;;;;;;5.32;4.75;;;;;;;;;;5066371;28;20055;-91
2023/09/13 04:16:33;;;;;;;6.20;4.70;;;;;;;;;;5063536;28;20052;-92
2023/09/13 04:19:01;;;;;;;6.60;5.68;;;;;;;;;;5086217;28;20055;-92
2023/09/13 04:21:30;;;;;;;5.32;4.88;;;;;;;;;;5074665;28;20063;-91
2023/09/13 04:24:01;;;;;;;4.72;4.32;;;;;;;;;;5072663;28;20610;-91
2023/09/13 04:26:32;;;;;;;6.82;5.57;;;;;;;;;;5084471;28;20381;-91
2023/09/13 04:29:02;;;;;;;6.78;5.22;;;;;;;;;;5078513;28;20049;-91
2023/09/13 04:31:30;;;;;;;7.22;5.05;;;;;;;;;;5067488;28;20516;-90
2023/09/13 04:33:57;;;;;;;5.85;5.15;;;;;;;;;;5087196;28;20804;-91
2023/09/13 04:36:30;;;;;;;8.88;4.75;;;;;;;;;;5065036;28;20048;-91
2023/09/13 04:39:00;;;;;;;6.55;5.93;;;;;;;;;;5068068;28;20048;-92
2023/09/13 04:41:28;;;;;;;11.38;4.60;;;;;;;;;;5091442;28;20062;-91
2023/09/13 04:43:58;;;;;;;5.68;5.07;;;;;;;;;;5081924;28;20055;-91
2023/09/13 04:46:27;;;;;;;7.75;5.90;;;;;;;;;;5076644;28;20048;-89
2023/09/13 04:48:57;;;;;;;4.88;4.40;;;;;;;;;;5062849;28;20053;-89
2023/09/13 04:51:25;;;;;;;11.38;5.82;;;;;;;;;;5074167;28;20059;-90
2023/09/13 04:53:54;;;;;;;7.38;5.97;;;;;;;;;;5082000;28;20488;-90
2023/09/13 04:56:23;;;;;;;4.85;4.22;;;;;;;;;;5091373;28;20451;-89
2023/09/13 04:58:54;;;;;;;5.60;4.78;;;;;;;;;;5085016;28;20051;-89
2023/09/13 05:01:21;;;;;;;7.50;6.82;;;;;;;;;;5086966;28;20059;-90
2023/09/13 05:03:49;;;;;;;7.70;5.43;;;;;;;;;;5075337;28;20059;-90
2023/09/13 05:06:16;;;;;;;6.13;5.30;;;;;;;;;;5057617;28;20041;-90
2023/09/13 05:08:44;;;;;;;9.95;5.75;;;;;;;;;;5058480;28;20436;-90
2023/09/13 05:11:12;;;;;;;6.82;5.93;;;;;;;;;;5074704;28;20040;-90
2023/09/13 05:13:47;;;;;;;7.22;6.20;;;;;;;;;;5082107;28;20048;-90
2023/09/13 05:16:19;;;;;;;7.43;4.85;;;;;;;;;;5089708;28;20054;-90
2023/09/13 05:18:46;;;;;;;6.85;5.32;;;;;;;;;;5066880;28;20048;-90
2023/09/13 05:21:13;;;;;;;5.90;5.25;;;;;;;;;;5088294;28;20059;-90
2023/09/13 05:23:43;;;;;;;6.50;5.32;;;;;;;;;;5082902;28;20056;-90
2023/09/13 05:26:11;;;;;;;10.95;5.70;;;;;;;;;;5080244;28;20489;-91
2023/09/13 05:28:38;;;;;;;7.60;5.70;;;;;;;;;;5073637;28;20062;-89
2023/09/13 05:31:09;;;;;;;7.25;6.55;;;;;;;;;;5089461;28;20047;-90
2023/09/13 05:33:37;;;;;;;6.25;5.00;;;;;;;;;;5088670;28;20055;-90
2023/09/13 05:36:07;;;;;;;6.60;5.57;;;;;;;;;;5065710;28;20039;-89
2023/09/13 05:38:35;;;;;;;8.23;5.28;;;;;;;;;;5062680;28;20059;-90
2023/09/13 05:41:07;;;;;;;6.50;5.80;;;;;;;;;;5080661;28;20032;-89
2023/09/13 05:43:35;;;;;;;8.07;5.03;;;;;;;;;;5064522;28;20048;-90
2023/09/13 05:46:02;;;;;;;7.90;5.63;;;;;;;;;;5070085;28;20550;-90
2023/09/13 05:48:32;;;;;;;5.60;4.97;;;;;;;;;;5082567;28;20055;-90
2023/09/13 05:50:59;;;;;;;5.00;4.05;;;;;;;;;;5076797;28;20052;-90
2023/09/13 05:53:29;;;;;;;6.95;5.50;;;;;;;;;;5085480;28;20047;-90
2023/09/13 05:55:58;;;;;;;5.40;4.70;;;;;;;;;;5079505;28;20496;-90
2023/09/13 05:58:29;;;;;;;5.70;5.17;;;;;;;;;;5071044;28;20408;-90
2023/09/13 06:01:00;;;;;;;5.28;3.97;;;;;;;;;;5073068;28;20055;-90
2023/09/13 06:03:30;;;;;;;6.25;5.03;;;;;;;;;;5090922;28;20058;-90
2023/09/13 06:06:03;;;;;;;6.65;5.82;;;;;;;;;;5074162;28;20044;-89
2023/09/13 06:08:31;;;;;;;6.22;4.45;;;;;;;;;;5057653;28;20044;-89
2023/09/13 06:10:58;;;;;;;5.32;4.82;;;;;;;;;;5088624;28;20542;-90
2023/09/13 06:13:28;;;;;;;6.20;5.13;;;;;;;;;;5093257;28;20052;-90
2023/09/13 06:15:55;;;;;;;8.18;5.05;;;;;;;;;;5088371;28;20047;-90
2023/09/13 06:18:25;;;;;;;6.10;5.45;;;;;;;;;;5073404;28;20056;-90
2023/09/13 06:20:54;;;;;;;8.65;5.45;;;;;;;;;;5062238;28;20513;-90
2023/09/13 06:23:36;;;;;;;7.55;5.38;;;;;;;;;;5089387;28;20060;-89
2023/09/13 06:26:05;;;;;;;7.05;5.47;;;;;;;;;;5087177;28;20039;-90
2023/09/13 06:28:33;;;;;;;6.75;5.18;;;;;;;;;;5058689;28;20049;-90
2023/09/13 06:31:01;;;;;;;6.38;5.20;;;;;;;;;;5079025;28;20052;-90
2023/09/13 06:33:31;;;;;;;7.03;5.50;;;;;;;;;;5071459;28;20059;-90
2023/09/13 06:36:00;;;;;;;7.50;5.35;;;;;;;;;;5073081;28;20523;-89
2023/09/13 06:38:28;;;;;;;7.22;5.28;;;;;;;;;;5080583;28;20040;-89
2023/09/13 06:40:57;;;;;;;5.47;4.78;;;;;;;;;;5087056;28;20055;-89
2023/09/13 06:43:27;;;;;;;6.28;5.18;;;;;;;;;;5082551;28;20051;-90
2023/09/13 06:45:55;;;;;;;7.22;5.20;;;;;;;;;;5067996;28;20480;-92
2023/09/13 06:48:23;;;;;;;8.18;5.18;;;;;;;;;;5085178;28;20394;-89
2023/09/13 06:50:53;;;;;;;5.43;4.90;;;;;;;;;;5085514;28;20051;-89
2023/09/13 06:53:20;;;;;;;5.53;4.82;;;;;;;;;;5077327;28;20059;-90
2023/09/13 06:55:51;;;;;;;6.88;4.78;;;;;;;;;;5070111;28;20045;-89
2023/09/13 06:58:33;;;;;;;5.70;5.18;;;;;;;;;;5088884;28;20056;-89
2023/09/13 07:01:03;;;;;;;5.60;4.10;;;;;;;;;;5078829;28;20048;-90
2023/09/13 07:06:35;;;;;;;7.07;4.70;;;;;;;;;;5076971;28;20512;-89
2023/09/13 07:09:03;;;;;;;5.20;4.70;;;;;;;;;;5072230;28;20709;-89
2023/09/13 07:11:33;;;;;;;5.25;4.22;;;;;;;;;;5105752;27;20044;-90
2023/09/13 07:14:02;;;;;;;5.93;4.80;;;;;;;;;;5064097;28;20654;-89
2023/09/13 07:16:29;;;;;;;7.60;4.50;;;;;;;;;;5089052;28;20043;-89
2023/09/13 07:18:57;;;;;;;5.88;4.95;;;;;;;;;;5091932;28;20048;-89
2023/09/13 07:21:24;;;;;;;4.88;4.30;;;;;;;;;;5085004;28;20524;-90
2023/09/13 07:23:52;;;;;;;4.32;3.78;;;;;;;;;;5085379;28;20055;-90
2023/09/13 07:26:19;;;;;;;5.38;3.92;;;;;;;;;;5080803;28;20066;-90
2023/09/13 07:28:47;;;;;;;5.40;4.30;;;;;;;;;;5086843;28;20044;-90
2023/09/13 07:31:15;;;;;;;4.88;4.40;;;;;;;;;;5094545;28;20055;-89
2023/09/13 07:34:00;;;;;;;;;;;;;;;;;;;;;
2023/09/13 07:36:28;;;;;;;6.30;4.90;;;;;;;;;;5064048;28;20429;-90
2023/09/13 07:38:55;;;;;;;5.43;4.70;;;;;;;;;;5078967;28;20037;-90
2023/09/13 07:41:23;;;;;;;5.85;4.75;;;;;;;;;;5090233;28;20052;-90
2023/09/13 07:43:50;;;;;;;5.03;4.22;;;;;;;;;;5085149;28;20052;-90
2023/09/13 07:46:19;;;;;;;5.68;4.53;;;;;;;;;;5079991;28;20052;-89
2023/09/13 07:49:16;;;;;;;4.28;3.88;;;;;;;;;;5097883;28;20397;-90
2023/09/13 07:51:43;;;;;;;9.13;4.07;;;;;;;;;;5095129;28;20059;-90
2023/09/13 07:54:11;;;;;;;7.00;4.97;;;;;;;;;;5074174;28;20059;-90
2023/09/13 07:56:40;;;;;;;5.20;4.63;;;;;;;;;;5084270;28;20493;-91
2023/09/13 07:59:08;;;;;;;9.27;5.28;;;;;;;;;;5087131;28;20048;-90
2023/09/13 08:01:47;;;;;;;4.88;4.38;;;;;;;;;;5091996;28;20048;-90
2023/09/13 08:04:19;;;;;;;8.45;5.25;;;;;;;;;;5081092;28;20056;-90
2023/09/13 08:06:49;;;;;;;6.32;4.57;;;;;;;;;;5094487;28;20496;-91
2023/09/13 08:10:16;;;;;;;7.93;4.35;;;;;;;;;;5086051;28;20055;-91
2023/09/13 08:12:44;;;;;;;4.80;4.28;;;;;;;;;;5067674;28;20048;-90
2023/09/13 08:15:14;;;;;;;4.20;3.80;;;;;;;;;;5071219;28;20063;-90
2023/09/13 08:18:04;;;;;;;4.45;4.03;;;;;;;;;;5079513;28;20045;-91
2023/09/13 08:20:31;;;;;;;5.85;4.60;;;;;;;;;;5079967;28;20044;-90
2023/09/13 08:23:18;;;;;;;4.97;4.22;;;;;;;;;;5077301;28;20048;-90
2023/09/13 08:26:07;;;;;;;9.60;5.30;;;;;;;;;;5088608;28;20055;-90
2023/09/13 08:28:50;;;;;;;5.38;4.25;;;;;;;;;;5093501;28;20044;-90
2023/09/13 08:31:23;;;;;;;6.53;4.90;;;;;;;;;;5083691;28;20051;-90
2023/09/13 08:34:11;;;;;;;11.30;4.07;;;;;;;;;;5090048;28;20670;-91
2023/09/13 08:40:24;;;;;;;5.05;4.50;;;;;;;;;;5130339;22;20039;-82
2023/09/13 08:42:53;;;;;;;5.63;4.97;;;;;;;;;;5073165;28;20048;-82
2023/09/13 08:45:22;;;;;;;5.13;4.10;;;;;;;;;;5075245;28;20047;-82
2023/09/13 08:47:50;;;;;;;5.38;4.88;;;;;;;;;;5076156;28;20048;-82
2023/09/13 08:50:23;;;;;;;9.40;4.40;;;;;;;;;;5076432;28;20052;-82
2023/09/13 08:52:51;;;;;;;5.57;4.28;;;;;;;;;;5093356;28;20508;-82
2023/09/13 09:02:15;;;;;;;5.75;5.15;;;;;;;;;;5075965;28;20044;-90
2023/09/13 09:05:32;;;;;;;;;;;;;;;;;;;;;
2023/09/13 09:08:50;;;;;;;5.78;3.95;;;;;;;;;;4914837;29;20055;-90
2023/09/13 09:11:19;;;;;;;7.30;4.68;;;;;;;;;;4998350;28;20061;-90
2023/09/13 09:21:44;;;;;;;10.23;4.40;;;;;;;;;;5094453;28;20058;-90
2023/09/13 09:24:56;;;;;;;5.50;4.30;;;;;;;;;;5106927;28;20052;-90
2023/09/13 09:28:08;;;;;;;8.57;4.78;;;;;;;;;;5073984;28;20067;-90
2023/09/13 09:30:48;;;;;;;7.43;4.28;;;;;;;;;;5081419;28;20059;-90
2023/09/13 09:33:29;;;;;;;4.57;3.75;;;;;;;;;;5061131;28;20055;-90
2023/09/13 09:36:06;;;;;;;4.78;4.03;;;;;;;;;;5074124;28;20059;-90
2023/09/13 09:47:15;;;;;;;7.57;4.80;;;;;;;;;;4934513;28;20423;-90
2023/09/13 09:49:42;;;;;;;5.07;4.50;;;;;;;;;;4998442;28;20044;-90
2023/09/13 09:52:11;;;;;;;5.38;4.47;;;;;;;;;;5040464;28;20421;-90
2023/09/13 09:54:39;;;;;;;6.97;4.55;;;;;;;;;;5077721;28;20051;-90
2023/09/13 09:57:06;;;;;;;5.05;3.83;;;;;;;;;;5075186;28;20134;-90
2023/09/13 09:59:35;;;;;;;5.07;3.65;;;;;;;;;;5058736;28;20051;-91
2023/09/13 10:02:03;;;;;;;4.38;3.97;;;;;;;;;;5061663;28;20067;-90
2023/09/13 10:04:44;;;;;;;5.88;5.30;;;;;;;;;;5075895;28;20056;-91
2023/09/13 10:07:12;;;;;;;4.50;4.10;;;;;;;;;;5085009;28;20048;-91
2023/09/13 10:09:40;;;;;;;4.72;4.15;;;;;;;;;;5072050;28;20059;-90
2023/09/13 10:12:10;;;;;;;4.65;3.38;;;;;;;;;;5078004;28;20515;-90
2023/09/13 10:14:40;;;;;;;6.20;4.60;;;;;;;;;;5083725;28;20059;-91
2023/09/13 10:17:09;;;;;;;6.40;5.32;;;;;;;;;;5081196;28;20040;-90
2023/09/13 10:19:42;;;;;;;6.13;4.40;;;;;;;;;;5086416;28;20487;-90
2023/09/13 10:22:13;;;;;;;5.18;4.57;;;;;;;;;;5081953;28;20053;-92
2023/09/13 10:24:47;;;;;;;4.57;4.18;;;;;;;;;;5064971;28;20044;-91
2023/09/13 10:27:17;;;;;;;5.18;4.28;;;;;;;;;;5083011;28;20044;-90
2023/09/13 10:29:47;;;;;;;4.82;4.43;;;;;;;;;;5080914;28;20049;-90
2023/09/13 10:32:16;;;;;;;4.75;3.90;;;;;;;;;;5085154;28;20040;-90
2023/09/13 10:34:50;;;;;;;5.80;4.03;;;;;;;;;;5063679;28;20048;-90
2023/09/13 10:37:33;;;;;;;4.40;4.00;;;;;;;;;;5074322;28;20063;-90
2023/09/13 10:40:10;;;;;;;4.03;3.70;;;;;;;;;;5069084;28;20059;-90
2023/09/13 10:42:44;;;;;;;8.98;5.10;;;;;;;;;;5084924;28;20595;-91
2023/09/13 10:45:14;;;;;;;4.78;4.25;;;;;;;;;;5085639;28;20660;-91
2023/09/13 10:47:42;;;;;;;6.00;4.32;;;;;;;;;;5068272;28;20040;-90
2023/09/13 10:50:11;;;;;;;10.35;4.47;;;;;;;;;;5064084;28;20057;-90
2023/09/13 10:52:40;;;;;;;4.28;3.88;;;;;;;;;;5084509;28;20044;-90
2023/09/13 10:55:08;;;;;;;5.93;4.43;;;;;;;;;;5081265;28;20429;-91
2023/09/13 10:57:40;;;;;;;5.97;4.55;;;;;;;;;;5082125;28;20044;-90
2023/09/13 11:00:09;;;;;;;6.72;4.15;;;;;;;;;;5083613;28;20159;-90
2023/09/13 11:02:40;;;;;;;5.10;3.85;;;;;;;;;;5056530;28;20048;-90
2023/09/13 11:05:09;;;;;;;5.28;4.53;;;;;;;;;;5098076;28;20053;-90
2023/09/13 11:07:40;;;;;;;5.30;4.00;;;;;;;;;;5080447;28;20059;-90
2023/09/13 11:10:14;;;;;;;5.10;4.60;;;;;;;;;;5079107;28;20044;-90
2023/09/13 11:12:48;;;;;;;6.05;4.22;;;;;;;;;;5085055;28;20559;-90
2023/09/13 11:15:20;;;;;;;5.53;4.45;;;;;;;;;;5079376;28;20052;-90
2023/09/13 11:17:52;;;;;;;4.75;4.32;;;;;;;;;;5085488;28;20044;-91
2023/09/13 11:20:27;;;;;;;16.98;5.50;;;;;;;;;;5068787;28;20052;-90
2023/09/13 11:23:08;;;;;;;16.65;5.00;;;;;;;;;;5079627;28;20051;-89
2023/09/13 11:25:37;;;;;;;11.40;6.45;;;;;;;;;;5080733;28;20206;-91
2023/09/13 11:28:06;;;;;;;12.45;5.38;;;;;;;;;;5065095;28;20036;-90
2023/09/13 11:30:48;;;;;;;14.40;6.75;;;;;;;;;;5082587;28;20044;-89
2023/09/13 11:33:15;;;;;;;10.75;4.85;;;;;;;;;;5055954;28;20052;-89
2023/09/13 11:35:43;;;;;;;9.60;5.85;;;;;;;;;;5080686;28;20040;-88
2023/09/13 11:38:13;;;;;;;7.80;6.15;;;;;;;;;;5078355;28;20056;-89
2023/09/13 11:40:42;;;;;;;11.10;6.22;;;;;;;;;;5084056;28;20051;-88
2023/09/13 11:43:13;;;;;;;7.40;6.40;;;;;;;;;;5082495;28;20044;-88
2023/09/13 11:45:42;;;;;;;7.32;5.97;;;;;;;;;;5099422;28;20044;-90
2023/09/13 11:48:13;;;;;;;9.52;5.88;;;;;;;;;;5080971;28;20048;-89
2023/09/13 11:50:42;;;;;;;7.80;5.25;;;;;;;;;;5057813;28;20055;-89
2023/09/13 11:53:16;;;;;;;5.78;5.13;;;;;;;;;;5078831;28;20049;-89
2023/09/13 11:55:46;;;;;;;;;;;;;;;;;;5079257;28;20165;-89
2023/09/13 11:58:16;;;;;;;7.68;5.35;;;;;;;;;;5068221;28;19927;-88
2023/09/13 12:00:43;;;;;;;7.68;6.70;;;;;;;;;;5077838;28;20059;-89
2023/09/13 12:03:18;;;;;;;7.70;5.60;;;;;;;;;;5074145;28;20060;-89
2023/09/13 12:05:46;;;;;;;7.30;5.25;;;;;;;;;;5082388;28;20055;-89
2023/09/13 12:08:22;;;;;;;7.10;5.18;;;;;;;;;;5068448;28;20040;-88
2023/09/13 12:10:50;;;;;;;8.07;4.85;;;;;;;;;;5080957;28;20044;-89
2023/09/13 12:13:18;;;;;;;5.20;4.68;;;;;;;;;;5085336;28;20051;-91
2023/09/13 12:16:01;;;;;;;7.10;5.10;;;;;;;;;;5082118;28;20043;-89
2023/09/13 12:18:30;;;;;;;5.82;4.95;;;;;;;;;;5077619;28;20532;-89
2023/09/13 12:20:58;;;;;;;4.55;3.83;;;;;;;;;;5085888;28;20044;-89
2023/09/13 12:23:27;;;;;;;5.95;5.32;;;;;;;;;;5084441;28;20519;-89
2023/09/13 12:25:58;;;;;;;4.30;3.88;;;;;;;;;;5083750;28;20047;-89
2023/09/13 12:28:28;;;;;;;6.57;5.57;;;;;;;;;;5079993;28;20059;-89
2023/09/13 12:30:58;;;;;;;5.53;4.80;;;;;;;;;;5089380;28;20051;-89
2023/09/13 12:33:26;;;;;;;7.57;4.70;;;;;;;;;;5072049;28;20059;-89
2023/09/13 12:35:54;;;;;;;5.32;4.50;;;;;;;;;;5083871;28;20052;-89
2023/09/13 12:38:23;;;;;;;6.50;4.50;;;;;;;;;;5085175;28;20649;-90
2023/09/13 12:40:54;;;;;;;7.68;4.82;;;;;;;;;;5084160;28;20736;-90
2023/09/13 12:43:22;;;;;;;5.30;4.75;;;;;;;;;;5090519;28;20051;-89
2023/09/13 12:45:50;;;;;;;5.07;4.15;;;;;;;;;;5084523;28;20067;-90
2023/09/13 12:48:20;;;;;;;5.90;4.65;;;;;;;;;;5081082;28;20047;-89
2023/09/13 12:50:52;;;;;;;7.47;4.63;;;;;;;;;;5068643;28;20044;-89
2023/09/13 12:53:19;;;;;;;5.55;4.78;;;;;;;;;;5073426;28;20052;-90
2023/09/13 12:55:47;;;;;;;6.80;4.68;;;;;;;;;;5082467;28;20059;-91
2023/09/13 12:58:16;;;;;;;5.22;4.72;;;;;;;;;;5065459;28;20044;-89
2023/09/13 13:00:51;;;;;;;6.85;4.50;;;;;;;;;;5090547;28;20044;-90
2023/09/13 13:03:24;;;;;;;5.93;4.60;;;;;;;;;;5068331;28;20098;-90
2023/09/13 13:05:55;;;;;;;5.88;5.30;;;;;;;;;;5082772;28;20862;-91
2023/09/13 13:08:32;;;;;;;7.03;6.32;;;;;;;;;;5090886;28;20040;-90
2023/09/13 13:11:02;;;;;;;5.93;5.40;;;;;;;;;;5079581;28;20083;-91
2023/09/13 13:13:37;;;;;;;7.43;5.15;;;;;;;;;;5074099;28;20052;-91
2023/09/13 13:16:14;;;;;;;6.57;4.65;;;;;;;;;;5084987;28;20048;-91
2023/09/13 13:18:46;;;;;;;7.78;5.50;;;;;;;;;;5087515;28;20040;-90
2023/09/13 13:21:14;;;;;;;6.20;5.60;;;;;;;;;;5080716;28;20043;-90
2023/09/13 13:23:46;;;;;;;5.65;5.00;;;;;;;;;;5081261;28;20508;-91
2023/09/13 13:26:13;;;;;;;9.23;5.95;;;;;;;;;;5059618;28;20051;-90
2023/09/13 13:28:42;;;;;;;6.28;5.35;;;;;;;;;;5068117;28;20500;-91
2023/09/13 13:31:36;;;;;;;6.43;5.82;;;;;;;;;;5064977;28;20527;-91
2023/09/13 13:34:23;;;;;;;5.80;5.20;;;;;;;;;;5081342;28;20420;-91
2023/09/13 13:36:53;;;;;;;6.80;4.55;;;;;;;;;;5082105;28;20645;-91
2023/09/13 13:39:21;;;;;;;7.25;5.20;;;;;;;;;;5086771;28;20048;-90
2023/09/13 13:41:48;;;;;;;6.45;4.97;;;;;;;;;;5088366;28;20052;-91
2023/09/13 13:44:17;;;;;;;7.05;5.72;;;;;;;;;;5065552;28;20707;-91
2023/09/13 13:46:45;;;;;;;5.63;5.13;;;;;;;;;;5085897;28;20429;-90
2023/09/13 13:49:16;;;;;;;6.60;5.47;;;;;;;;;;5084742;28;20090;-91
2023/09/13 13:51:49;;;;;;;5.95;5.45;;;;;;;;;;5086230;28;20046;-91
2023/09/13 13:54:17;;;;;;;6.65;5.03;;;;;;;;;;5065456;28;20052;-91
2023/09/13 13:56:46;;;;;;;5.72;5.22;;;;;;;;;;5087643;28;20048;-91
2023/09/13 13:59:14;;;;;;;5.75;5.15;;;;;;;;;;5108969;28;20051;-90
2023/09/13 14:01:42;;;;;;;5.72;4.93;;;;;;;;;;5080974;28;20062;-92
2023/09/13 14:04:11;;;;;;;5.97;5.38;;;;;;;;;;5083833;28;20048;-90
2023/09/13 14:06:44;;;;;;;6.00;5.22;;;;;;;;;;5060327;28;20052;-91
2023/09/13 14:09:13;;;;;;;8.18;6.70;;;;;;;;;;5090386;28;20044;-91
2023/09/13 14:11:43;;;;;;;8.32;6.75;;;;;;;;;;5065277;28;20622;-91
2023/09/13 14:14:13;;;;;;;6.90;6.25;;;;;;;;;;5087974;28;20059;-92
2023/09/13 14:16:44;;;;;;;5.33;4.60;;;;;;;;;;5061279;28;20057;-91
2023/09/13 14:19:11;;;;;;;5.63;5.10;;;;;;;;;;5088957;28;20040;-90
2023/09/13 14:21:39;;;;;;;6.88;5.45;;;;;;;;;;5064141;28;20060;-90
2023/09/13 14:24:07;;;;;;;6.00;5.45;;;;;;;;;;5068158;28;20059;-91
2023/09/13 14:26:35;;;;;;;5.85;5.30;;;;;;;;;;5084521;28;20698;-90
2023/09/13 14:29:02;;;;;;;7.32;4.50;;;;;;;;;;5062692;28;20050;-91
2023/09/13 14:31:36;;;;;;;6.75;5.57;;;;;;;;;;5065764;28;20052;-91
2023/09/13 14:34:05;;;;;;;7.43;6.07;;;;;;;;;;5082118;28;20055;-91
2023/09/13 14:36:33;;;;;;;7.53;5.95;;;;;;;;;;5059324;28;20543;-91
2023/09/13 14:39:00;;;;;;;5.85;5.18;;;;;;;;;;5086615;28;20067;-91
2023/09/13 14:41:29;;;;;;;6.88;6.10;;;;;;;;;;5077336;28;20452;-92
2023/09/13 14:43:56;;;;;;;10.43;5.72;;;;;;;;;;5066448;28;20532;-91
2023/09/13 14:46:23;;;;;;;8.95;6.13;;;;;;;;;;5090130;28;20048;-91
2023/09/13 14:48:54;;;;;;;7.63;5.60;;;;;;;;;;5086705;28;20044;-91
2023/09/13 14:51:25;;;;;;;6.40;5.78;;;;;;;;;;5079882;28;20051;-91
2023/09/13 14:53:53;;;;;;;7.18;5.70;;;;;;;;;;5064309;28;20544;-91
2023/09/13 14:56:20;;;;;;;7.47;6.03;;;;;;;;;;5082913;28;20043;-90
2023/09/13 14:58:48;;;;;;;6.97;5.72;;;;;;;;;;5080432;28;20047;-91
2023/09/13 15:01:17;;;;;;;12.15;6.53;;;;;;;;;;5068907;28;20056;-91
2023/09/13 15:03:50;;;;;;;7.57;6.20;;;;;;;;;;5079487;28;20060;-91
2023/09/13 15:06:20;;;;;;;7.38;6.07;;;;;;;;;;5081870;28;20052;-91
2023/09/13 15:08:49;;;;;;;6.80;5.45;;;;;;;;;;5082047;28;20056;-91
2023/09/13 15:11:18;;;;;;;11.95;6.63;;;;;;;;;;5062371;28;20052;-91
2023/09/13 15:13:45;;;;;;;7.15;5.95;;;;;;;;;;5086909;28;20059;-91
2023/09/13 15:16:13;;;;;;;6.97;6.28;;;;;;;;;;5055304;28;20056;-91
2023/09/13 15:18:42;;;;;;;8.10;6.53;;;;;;;;;;5061606;28;20056;-91
2023/09/13 15:21:10;;;;;;;7.40;5.93;;;;;;;;;;5083494;28;20056;-90
2023/09/13 15:23:39;;;;;;;6.72;6.07;;;;;;;;;;5081050;28;20049;-91
2023/09/13 15:26:11;;;;;;;8.18;5.57;;;;;;;;;;5085160;28;20056;-94
2023/09/13 15:28:39;;;;;;;10.80;6.30;;;;;;;;;;5079865;28;20055;-91
2023/09/13 15:31:06;;;;;;;6.50;5.85;;;;;;;;;;5075907;28;20500;-90
2023/09/13 15:33:34;;;;;;;12.20;6.90;;;;;;;;;;5086749;28;20044;-89
2023/09/13 15:36:04;;;;;;;7.65;6.25;;;;;;;;;;5085032;28;20044;-89
2023/09/13 15:38:34;;;;;;;6.60;5.90;;;;;;;;;;5068408;28;20059;-89